Time;durP1;ratioP1;P1;durP2;ratioP2;P2;SDS_P1;SDS_P2;PMS_P1;PMS_P2;Temp;Humidity;BMP_temperature;BMP_pressure;BME280_temperature;BME280_humidity;BME280_pressure;Samples;Min_cycle;Max_cycle;Signal;HPM_P1;HPM_P2
2023/07/06 00:02:00;;;;;;;3.78;2.65;;;14.50;63.00;;;;;;5029804;28;20125;-77
2023/07/06 00:04:26;;;;;;;8.00;3.40;;;14.60;63.00;;;;;;5030523;28;20052;-76
2023/07/06 00:06:52;;;;;;;3.70;2.63;;;14.50;63.10;;;;;;5030082;28;20105;-76
2023/07/06 00:09:18;;;;;;;3.65;2.83;;;14.50;63.50;;;;;;5030029;28;20048;-75
2023/07/06 00:11:44;;;;;;;4.97;2.92;;;14.50;63.50;;;;;;5030126;28;20025;-76
2023/07/06 00:14:11;;;;;;;6.72;2.78;;;14.40;63.90;;;;;;5029973;28;20017;-76
2023/07/06 00:16:41;;;;;;;5.20;3.10;;;14.20;64.40;;;;;;5029991;28;20500;-76
2023/07/06 00:19:08;;;;;;;4.32;2.83;;;14.20;64.60;;;;;;5029899;28;20033;-77
2023/07/06 00:21:34;;;;;;;4.00;2.90;;;14.10;64.70;;;;;;5030147;28;20070;-77
2023/07/06 00:24:00;;;;;;;3.88;2.80;;;14.20;64.80;;;;;;5029819;28;20530;-77
2023/07/06 00:26:26;;;;;;;6.00;2.53;;;14.20;64.60;;;;;;5029940;28;20378;-77
2023/07/06 00:28:53;;;;;;;3.00;2.60;;;14.20;64.20;;;;;;5029849;28;20030;-76
2023/07/06 00:31:21;;;;;;;6.35;2.90;;;14.20;64.20;;;;;;5030033;28;20060;-77
2023/07/06 00:33:52;;;;;;;4.45;2.65;;;14.20;64.60;;;;;;5029761;28;20047;-74
2023/07/06 00:36:17;;;;;;;4.45;2.95;;;14.10;65.10;;;;;;5029594;28;20045;-74
2023/07/06 00:38:44;;;;;;;3.72;2.65;;;14.00;65.20;;;;;;5029835;28;20025;-74
2023/07/06 00:41:11;;;;;;;3.33;2.80;;;14.10;65.40;;;;;;5029419;28;20045;-75
2023/07/06 00:43:52;;;;;;;3.90;2.72;;;14.00;65.80;;;;;;5029573;28;20514;-74
2023/07/06 00:46:19;;;;;;;3.70;2.55;;;14.00;65.70;;;;;;5029668;28;20018;-75
2023/07/06 00:48:47;;;;;;;4.45;2.70;;;13.90;65.90;;;;;;5030129;28;20025;-75
2023/07/06 00:51:17;;;;;;;2.97;2.63;;;14.00;65.90;;;;;;5033094;28;20112;-75
2023/07/06 00:53:48;;;;;;;4.60;2.63;;;14.00;65.80;;;;;;5033090;28;20103;-75
2023/07/06 00:56:18;;;;;;;4.32;2.75;;;14.00;65.80;;;;;;5033125;28;20122;-75
2023/07/06 00:58:46;;;;;;;4.90;2.90;;;14.00;65.60;;;;;;5032993;28;20026;-74
2023/07/06 01:01:15;;;;;;;5.97;2.70;;;14.00;65.80;;;;;;5032981;28;20029;-75
2023/07/06 01:03:45;;;;;;;3.88;2.38;;;13.90;66.00;;;;;;5032760;28;20029;-76
2023/07/06 01:06:24;;;;;;;6.00;2.95;;;14.00;65.80;;;;;;5032856;28;20067;-76
2023/07/06 01:08:51;;;;;;;3.42;2.58;;;13.80;66.10;;;;;;5032793;28;20022;-76
2023/07/06 01:11:17;;;;;;;5.40;2.90;;;13.70;66.50;;;;;;5032734;28;20062;-77
2023/07/06 01:13:51;;;;;;;3.33;2.55;;;13.70;66.70;;;;;;5032752;28;20029;-75
2023/07/06 01:17:07;;;;;;;5.40;3.10;;;13.70;66.80;;;;;;5032915;28;20038;-76
2023/07/06 01:20:10;;;;;;;4.00;2.63;;;13.60;67.50;;;;;;4990978;28;20035;-75
2023/07/06 01:23:06;;;;;;;5.18;2.90;;;13.50;68.00;;;;;;4990557;28;20026;-75
2023/07/06 01:25:55;;;;;;;3.15;2.75;;;13.50;68.10;;;;;;5032265;28;20086;-75
2023/07/06 01:28:45;;;;;;;7.05;3.13;;;13.50;68.20;;;;;;5031003;28;20431;-75
2023/07/06 01:31:39;;;;;;;7.35;3.05;;;13.50;68.20;;;;;;5032438;28;20025;-75
2023/07/06 01:34:33;;;;;;;4.22;2.92;;;13.50;68.00;;;;;;5032284;28;20032;-75
2023/07/06 01:37:05;;;;;;;3.47;2.63;;;13.60;67.80;;;;;;5031092;28;20025;-76
2023/07/06 01:39:30;;;;;;;5.72;2.70;;;13.50;67.90;;;;;;5032260;28;20033;-75
2023/07/06 01:42:26;;;;;;;3.58;2.60;;;13.50;67.80;;;;;;5032038;28;20394;-76
2023/07/06 01:44:58;;;;;;;4.20;2.90;;;13.50;67.90;;;;;;5027748;27;20049;-76
2023/07/06 01:47:24;;;;;;;3.65;2.78;;;13.40;68.20;;;;;;5032723;28;20112;-76
2023/07/06 01:49:51;;;;;;;5.05;2.70;;;13.40;68.20;;;;;;5032762;28;20118;-77
2023/07/06 01:52:28;;;;;;;3.00;2.50;;;13.50;68.30;;;;;;5032234;28;20017;-76
2023/07/06 01:55:10;;;;;;;6.32;2.90;;;13.50;67.90;;;;;;5032092;28;20022;-76
2023/07/06 01:57:49;;;;;;;3.80;2.75;;;13.60;67.60;;;;;;5031915;28;20070;-76
2023/07/06 02:00:16;;;;;;;4.20;2.92;;;13.50;67.50;;;;;;5031074;28;20033;-76
2023/07/06 02:02:44;;;;;;;6.47;2.80;;;13.40;67.80;;;;;;5031702;28;20021;-76
2023/07/06 02:05:13;;;;;;;5.15;2.78;;;13.30;68.00;;;;;;5031905;28;20029;-77
2023/07/06 02:07:42;;;;;;;6.03;2.95;;;13.10;68.80;;;;;;5031901;28;20386;-76
2023/07/06 02:10:13;;;;;;;5.45;2.65;;;13.00;69.20;;;;;;5031797;28;20029;-78
2023/07/06 02:12:39;;;;;;;7.45;3.50;;;13.00;69.40;;;;;;5031790;28;20113;-77
2023/07/06 02:15:06;;;;;;;4.30;2.47;;;13.10;69.60;;;;;;5031732;28;20101;-75
2023/07/06 02:17:32;;;;;;;2.78;2.42;;;13.10;69.40;;;;;;5031780;28;20022;-76
2023/07/06 02:19:58;;;;;;;4.07;2.97;;;13.00;69.70;;;;;;5031720;28;20018;-77
2023/07/06 02:22:27;;;;;;;6.00;2.65;;;13.00;69.70;;;;;;5031604;28;20441;-77
2023/07/06 02:24:52;;;;;;;3.85;3.10;;;12.90;70.10;;;;;;5031500;28;20072;-76
2023/07/06 02:27:19;;;;;;;4.05;2.60;;;12.90;70.20;;;;;;5030278;28;20049;-76
2023/07/06 02:29:45;;;;;;;5.75;2.92;;;12.90;70.30;;;;;;5031611;28;20032;-77
2023/07/06 02:32:11;;;;;;;3.47;2.67;;;13.00;70.20;;;;;;5031481;28;20022;-74
2023/07/06 02:34:37;;;;;;;3.83;2.97;;;12.90;70.30;;;;;;5031356;28;20123;-75
2023/07/06 02:37:03;;;;;;;7.65;2.90;;;13.00;70.20;;;;;;5031317;28;20025;-75
2023/07/06 02:39:30;;;;;;;4.55;2.97;;;12.90;70.20;;;;;;5031388;28;20033;-75
2023/07/06 02:41:56;;;;;;;4.10;2.65;;;12.80;70.60;;;;;;5031214;28;20053;-74
2023/07/06 02:44:23;;;;;;;7.80;3.25;;;12.80;70.80;;;;;;5031142;28;20037;-75
2023/07/06 02:46:49;;;;;;;6.00;3.13;;;12.70;70.80;;;;;;5031151;27;20030;-75
2023/07/06 02:49:18;;;;;;;4.45;2.83;;;12.70;71.00;;;;;;5031148;28;20466;-76
2023/07/06 02:51:44;;;;;;;7.25;3.05;;;12.70;71.40;;;;;;5031023;28;20043;-75
2023/07/06 02:54:13;;;;;;;4.75;2.90;;;12.60;71.30;;;;;;5031132;28;20485;-75
2023/07/06 02:56:42;;;;;;;4.00;2.67;;;12.60;71.40;;;;;;5031069;28;20026;-76
2023/07/06 02:59:08;;;;;;;4.50;3.10;;;12.50;72.00;;;;;;5030952;28;20022;-75
2023/07/06 03:01:34;;;;;;;6.03;2.60;;;12.50;72.10;;;;;;5030868;28;20021;-74
2023/07/06 03:04:01;;;;;;;4.78;2.88;;;12.60;72.10;;;;;;5030855;28;20057;-75
2023/07/06 03:06:27;;;;;;;4.20;3.10;;;12.50;71.90;;;;;;5030843;28;20419;-75
2023/07/06 03:08:54;;;;;;;5.10;2.95;;;12.60;71.90;;;;;;5030780;28;20014;-75
2023/07/06 03:11:20;;;;;;;8.50;3.28;;;12.60;71.90;;;;;;5030631;28;20022;-75
2023/07/06 03:13:45;;;;;;;4.63;2.97;;;12.50;72.00;;;;;;5030534;28;20078;-75
2023/07/06 03:16:11;;;;;;;4.95;3.13;;;12.40;72.20;;;;;;5030674;28;20101;-74
2023/07/06 03:18:36;;;;;;;4.38;3.38;;;12.40;72.40;;;;;;5029376;28;20093;-74
2023/07/06 03:21:02;;;;;;;5.97;3.70;;;12.40;73.00;;;;;;5030680;28;20055;-75
2023/07/06 03:23:28;;;;;;;5.55;2.80;;;12.30;73.90;;;;;;5030541;28;20091;-76
2023/07/06 03:25:53;;;;;;;4.28;2.53;;;12.20;74.30;;;;;;5030565;28;20537;-74
2023/07/06 03:28:21;;;;;;;5.40;3.10;;;12.40;74.00;;;;;;5030569;28;20062;-75
2023/07/06 03:30:54;;;;;;;6.90;3.60;;;12.50;73.60;;;;;;5030629;28;20021;-75
2023/07/06 03:33:19;;;;;;;5.45;3.10;;;12.50;72.90;;;;;;5030470;28;20056;-76
2023/07/06 03:35:45;;;;;;;4.40;3.50;;;12.50;72.90;;;;;;5030521;28;20025;-77
2023/07/06 03:38:12;;;;;;;4.22;3.05;;;12.50;72.90;;;;;;5030439;28;20037;-76
2023/07/06 03:40:38;;;;;;;3.20;2.58;;;12.40;72.60;;;;;;5029870;28;20489;-76
2023/07/06 03:43:06;;;;;;;5.78;3.28;;;12.40;72.60;;;;;;5030261;28;20053;-77
2023/07/06 03:45:32;;;;;;;3.08;2.72;;;12.50;72.70;;;;;;5029862;28;20370;-78
2023/07/06 03:47:58;;;;;;;4.25;3.15;;;12.60;72.20;;;;;;5030316;28;20028;-78
2023/07/06 03:50:25;;;;;;;5.43;3.10;;;12.70;71.80;;;;;;5030200;28;20030;-78
2023/07/06 03:52:51;;;;;;;8.15;3.00;;;12.80;71.50;;;;;;5029959;28;20025;-78
2023/07/06 03:55:24;;;;;;;4.25;2.90;;;12.80;71.10;;;;;;5029955;28;20057;-78
2023/07/06 03:57:50;;;;;;;4.78;2.90;;;12.90;70.90;;;;;;5029939;28;20025;-76
2023/07/06 04:00:20;;;;;;;7.18;3.00;;;12.80;70.50;;;;;;5029933;28;20074;-77
2023/07/06 04:02:47;;;;;;;4.22;2.75;;;12.90;70.60;;;;;;5029839;28;20070;-78
2023/07/06 04:05:15;;;;;;;3.10;2.80;;;13.00;70.50;;;;;;5028114;28;20124;-76
2023/07/06 04:07:42;;;;;;;3.92;2.83;;;13.00;70.50;;;;;;5029832;28;20013;-77
2023/07/06 04:10:08;;;;;;;5.25;3.30;;;13.00;70.50;;;;;;5029757;28;20064;-77
2023/07/06 04:12:37;;;;;;;5.05;2.60;;;13.00;70.20;;;;;;5029772;28;20022;-76
2023/07/06 04:15:06;;;;;;;6.95;3.28;;;13.00;70.10;;;;;;5029896;28;20025;-76
2023/07/06 04:17:32;;;;;;;4.70;2.83;;;13.00;70.20;;;;;;5029712;28;20021;-76
2023/07/06 04:19:58;;;;;;;5.70;3.15;;;13.00;69.70;;;;;;5029765;28;20026;-76
2023/07/06 04:22:23;;;;;;;5.80;3.05;;;13.10;70.00;;;;;;5029639;28;20386;-77
2023/07/06 04:24:51;;;;;;;4.45;2.90;;;13.00;70.10;;;;;;5031653;28;20034;-75
2023/07/06 04:27:17;;;;;;;5.97;3.13;;;13.10;70.00;;;;;;5033176;28;20033;-75
2023/07/06 04:29:44;;;;;;;6.57;3.15;;;13.20;69.30;;;;;;5032867;28;20057;-77
2023/07/06 04:32:09;;;;;;;5.10;2.92;;;13.20;69.60;;;;;;5033233;28;20021;-74
2023/07/06 04:34:36;;;;;;;5.78;3.13;;;13.30;69.10;;;;;;5031735;28;20035;-73
2023/07/06 04:37:02;;;;;;;5.20;2.97;;;13.30;68.70;;;;;;5032789;28;20066;-72
2023/07/06 04:39:28;;;;;;;6.90;3.53;;;13.30;68.50;;;;;;5033012;28;20030;-72
2023/07/06 04:41:54;;;;;;;5.32;2.70;;;13.40;68.30;;;;;;5032985;28;20554;-73
2023/07/06 04:44:20;;;;;;;15.63;4.15;;;13.40;68.20;;;;;;5032765;28;20121;-72
2023/07/06 04:46:45;;;;;;;8.27;3.40;;;13.60;72.40;;;;;;5032958;28;20136;-75
2023/07/06 04:49:11;;;;;;;5.63;3.30;;;13.90;73.00;;;;;;5033069;28;20030;-76
2023/07/06 04:51:37;;;;;;;5.63;3.55;;;14.10;69.50;;;;;;5032972;28;20030;-77
2023/07/06 04:54:03;;;;;;;5.97;3.40;;;14.30;67.90;;;;;;5033120;28;20017;-80
2023/07/06 04:56:29;;;;;;;5.82;3.00;;;14.40;65.70;;;;;;5032865;28;20109;-83
2023/07/06 04:58:56;;;;;;;5.85;2.65;;;14.50;65.70;;;;;;5032990;28;20085;-80
2023/07/06 05:01:23;;;;;;;6.97;3.20;;;14.60;65.00;;;;;;5032738;28;20026;-79
2023/07/06 05:03:49;;;;;;;5.38;3.00;;;14.80;65.10;;;;;;5032778;28;20022;-80
2023/07/06 05:06:15;;;;;;;4.25;2.60;;;15.00;63.60;;;;;;5032984;28;20108;-79
2023/07/06 05:08:43;;;;;;;5.30;2.92;;;15.20;62.10;;;;;;5032637;28;20044;-79
2023/07/06 05:11:09;;;;;;;4.32;2.85;;;15.30;61.00;;;;;;5032839;28;20049;-81
2023/07/06 05:13:34;;;;;;;6.55;3.05;;;15.30;60.30;;;;;;5032625;28;20064;-80
2023/07/06 05:16:00;;;;;;;5.97;2.70;;;15.30;60.30;;;;;;5032416;28;20053;-81
2023/07/06 05:18:26;;;;;;;6.32;3.15;;;15.30;60.10;;;;;;5032523;28;20441;-80
2023/07/06 05:20:56;;;;;;;6.07;2.78;;;15.30;60.20;;;;;;5032465;28;20021;-82
2023/07/06 05:23:23;;;;;;;6.57;3.40;;;15.40;60.40;;;;;;5031058;28;20029;-82
2023/07/06 05:25:53;;;;;;;4.97;2.95;;;15.50;60.10;;;;;;5030866;28;20453;-81
2023/07/06 05:28:20;;;;;;;6.38;2.88;;;15.50;59.20;;;;;;5032351;28;20021;-82
2023/07/06 05:30:46;;;;;;;11.80;3.33;;;15.50;59.20;;;;;;5031898;28;20108;-82
2023/07/06 05:33:12;;;;;;;6.00;2.85;;;15.50;59.10;;;;;;5031912;28;20435;-81
2023/07/06 05:35:38;;;;;;;6.53;3.40;;;15.50;59.20;;;;;;5031814;28;20017;-82
2023/07/06 05:38:07;;;;;;;6.88;3.33;;;15.50;59.40;;;;;;5031894;28;20074;-82
2023/07/06 05:40:32;;;;;;;7.55;3.05;;;15.60;59.20;;;;;;5031792;28;20021;-82
2023/07/06 05:42:58;;;;;;;7.22;3.70;;;15.70;58.90;;;;;;5031914;28;20101;-82
2023/07/06 05:45:25;;;;;;;8.13;2.97;;;15.70;58.80;;;;;;5032089;28;20474;-81
2023/07/06 05:47:50;;;;;;;5.15;3.10;;;15.80;58.80;;;;;;5031497;28;20026;-82
2023/07/06 05:50:16;;;;;;;8.20;3.15;;;15.90;59.00;;;;;;5031969;28;20022;-83
2023/07/06 05:52:42;;;;;;;7.55;3.33;;;16.10;59.50;;;;;;5031883;28;20025;-81
2023/07/06 05:55:09;;;;;;;6.28;3.17;;;16.20;58.40;;;;;;5031725;28;20497;-82
2023/07/06 05:57:34;;;;;;;4.82;2.60;;;16.40;58.30;;;;;;5031897;28;20048;-82
2023/07/06 06:00:01;;;;;;;5.65;2.60;;;16.60;57.50;;;;;;5031833;28;20611;-83
2023/07/06 06:02:27;;;;;;;7.00;2.80;;;16.70;56.90;;;;;;5030263;28;20022;-83
2023/07/06 06:04:53;;;;;;;4.88;3.50;;;16.80;56.30;;;;;;5046748;28;20037;-82
2023/07/06 06:07:20;;;;;;;4.18;2.63;;;17.00;56.10;;;;;;5031770;28;20030;-83
2023/07/06 06:09:48;;;;;;;5.25;2.63;;;17.20;55.40;;;;;;5030550;28;20029;-82
2023/07/06 06:12:18;;;;;;;5.55;2.85;;;17.20;55.30;;;;;;5031704;28;20075;-83
2023/07/06 06:14:48;;;;;;;5.43;2.83;;;17.30;55.40;;;;;;5031454;28;20022;-82
2023/07/06 06:17:15;;;;;;;4.32;3.05;;;17.40;55.00;;;;;;5030295;28;20034;-83
2023/07/06 06:19:42;;;;;;;3.85;2.90;;;17.60;54.70;;;;;;5031141;28;20021;-82
2023/07/06 06:22:09;;;;;;;5.80;3.17;;;17.80;54.70;;;;;;5030088;28;20365;-82
2023/07/06 06:24:34;;;;;;;3.47;2.88;;;17.90;54.70;;;;;;5031155;28;20033;-82
2023/07/06 06:27:00;;;;;;;4.70;3.00;;;17.90;55.20;;;;;;5031430;28;20021;-82
2023/07/06 06:29:27;;;;;;;6.03;3.05;;;17.90;55.00;;;;;;5031503;28;20494;-82
2023/07/06 06:31:53;;;;;;;6.05;2.88;;;17.90;55.30;;;;;;5030230;28;20093;-82
2023/07/06 06:34:19;;;;;;;6.90;3.55;;;18.00;55.30;;;;;;5030139;28;20384;-82
2023/07/06 06:36:45;;;;;;;5.15;3.28;;;18.20;55.00;;;;;;5031302;28;20109;-83
2023/07/06 06:39:10;;;;;;;5.20;2.70;;;18.40;54.40;;;;;;5031658;28;20423;-82
2023/07/06 06:41:39;;;;;;;7.10;3.03;;;18.60;53.50;;;;;;5031201;28;20053;-82
2023/07/06 06:44:05;;;;;;;6.07;2.72;;;18.80;53.10;;;;;;5031153;28;20465;-83
2023/07/06 06:46:31;;;;;;;5.72;3.08;;;19.00;52.50;;;;;;5030466;28;20026;-82
2023/07/06 06:48:57;;;;;;;4.75;2.53;;;19.10;51.20;;;;;;5029963;28;20025;-83
2023/07/06 06:51:23;;;;;;;4.57;2.63;;;19.10;50.10;;;;;;5030910;28;20045;-81
2023/07/06 06:53:49;;;;;;;6.68;2.90;;;19.20;50.00;;;;;;5031297;28;20367;-82
2023/07/06 06:56:14;;;;;;;3.22;2.65;;;19.40;49.90;;;;;;5029735;28;20055;-82
2023/07/06 06:58:41;;;;;;;4.10;2.80;;;19.40;49.90;;;;;;5029815;28;20437;-81
2023/07/06 07:01:08;;;;;;;4.65;2.80;;;19.50;48.40;;;;;;5030746;28;20018;-82
2023/07/06 07:03:34;;;;;;;3.97;2.50;;;19.40;48.40;;;;;;5030538;28;20120;-80
2023/07/06 07:06:14;;;;;;;4.07;2.92;;;19.50;48.90;;;;;;5030746;28;20037;-80
2023/07/06 07:08:49;;;;;;;4.72;2.75;;;19.50;48.90;;;;;;5030622;28;20017;-81
2023/07/06 07:11:19;;;;;;;10.05;2.50;;;19.70;48.80;;;;;;5033465;28;20028;-80
2023/07/06 07:13:46;;;;;;;3.38;2.35;;;19.80;48.30;;;;;;5049348;28;20147;-79
2023/07/06 07:16:11;;;;;;;4.93;3.10;;;19.90;48.40;;;;;;5030048;28;20275;-81
2023/07/06 07:18:38;;;;;;;4.93;3.00;;;19.90;47.80;;;;;;5030651;28;20103;-80
2023/07/06 07:21:06;;;;;;;4.43;2.63;;;20.00;48.20;;;;;;5028429;28;20487;-80
2023/07/06 07:23:46;;;;;;;5.30;2.40;;;20.10;48.20;;;;;;5029288;28;20055;-81
2023/07/06 07:26:14;;;;;;;5.18;2.70;;;20.20;48.10;;;;;;5030119;28;20500;-82
2023/07/06 07:28:40;;;;;;;4.45;2.90;;;20.30;47.50;;;;;;5029951;28;20025;-81
2023/07/06 07:31:07;;;;;;;6.10;2.45;;;20.60;46.80;;;;;;5028957;28;20037;-82
2023/07/06 07:33:34;;;;;;;6.65;3.00;;;20.60;46.20;;;;;;5030173;28;20354;-80
2023/07/06 07:36:04;;;;;;;3.40;2.53;;;20.80;45.60;;;;;;5030375;28;20029;-82
2023/07/06 07:38:29;;;;;;;5.60;2.83;;;20.90;45.00;;;;;;5029172;28;20112;-82
2023/07/06 07:40:57;;;;;;;3.97;2.83;;;21.10;45.00;;;;;;5029950;28;20061;-82
2023/07/06 07:43:27;;;;;;;5.95;2.90;;;21.20;44.80;;;;;;5030143;28;20425;-81
2023/07/06 07:45:55;;;;;;;3.20;2.58;;;21.10;44.20;;;;;;5029832;28;20042;-81
2023/07/06 07:48:25;;;;;;;4.75;2.53;;;20.90;45.00;;;;;;5030059;28;20384;-82
2023/07/06 07:50:53;;;;;;;4.03;2.65;;;21.00;44.50;;;;;;5030215;28;20351;-82
2023/07/06 07:53:22;;;;;;;7.82;3.03;;;21.10;44.80;;;;;;5028698;28;20109;-82
2023/07/06 07:55:48;;;;;;;4.35;2.50;;;21.10;44.20;;;;;;5030285;28;20017;-82
2023/07/06 07:58:14;;;;;;;5.57;1.98;;;21.00;44.50;;;;;;5029308;28;20036;-81
2023/07/06 08:00:40;;;;;;;3.70;2.58;;;21.20;44.60;;;;;;5029649;28;20025;-81
2023/07/06 08:03:06;;;;;;;4.28;2.55;;;21.30;44.20;;;;;;5028395;28;20032;-82
2023/07/06 08:05:31;;;;;;;5.07;2.78;;;21.40;43.80;;;;;;5029776;28;20470;-82
2023/07/06 08:07:57;;;;;;;4.55;2.70;;;21.60;43.50;;;;;;5028345;28;20035;-83
2023/07/06 08:10:23;;;;;;;5.68;3.08;;;21.70;43.00;;;;;;5029670;28;20465;-81
2023/07/06 08:12:49;;;;;;;6.05;3.08;;;21.60;42.00;;;;;;5029735;28;20065;-81
2023/07/06 08:15:15;;;;;;;8.50;2.75;;;21.30;43.20;;;;;;5029568;28;20118;-73
2023/07/06 08:17:41;;;;;;;6.90;2.97;;;21.30;43.50;;;;;;5028547;28;20029;-81
2023/07/06 08:20:10;;;;;;;3.95;2.65;;;21.40;43.90;;;;;;5029342;28;20022;-74
2023/07/06 08:22:36;;;;;;;4.28;3.05;;;21.30;43.50;;;;;;5028277;28;20017;-77
2023/07/06 08:25:05;;;;;;;8.55;3.03;;;21.50;43.60;;;;;;5105225;27;20099;-75
2023/07/06 08:27:31;;;;;;;7.85;2.95;;;21.50;43.20;;;;;;5119741;27;20021;-75
2023/07/06 08:29:58;;;;;;;6.60;3.00;;;21.50;43.40;;;;;;5048052;28;20150;-76
2023/07/06 08:32:24;;;;;;;6.32;3.15;;;21.70;44.00;;;;;;5034375;28;20025;-77
2023/07/06 08:34:50;;;;;;;5.30;2.42;;;21.70;41.60;;;;;;5029394;28;20025;-78
2023/07/06 08:37:18;;;;;;;5.53;2.97;;;21.60;41.40;;;;;;5029547;28;20361;-76
2023/07/06 08:39:44;;;;;;;6.15;2.50;;;21.70;42.30;;;;;;5029227;28;20424;-76
2023/07/06 08:42:14;;;;;;;5.72;3.28;;;21.90;42.70;;;;;;5029543;28;20041;-76
2023/07/06 08:44:43;;;;;;;5.00;3.05;;;22.10;41.90;;;;;;5035129;28;20033;-78
2023/07/06 08:47:11;;;;;;;5.05;3.58;;;22.20;40.50;;;;;;5029128;28;20017;-76
2023/07/06 08:49:38;;;;;;;5.25;2.58;;;22.10;40.30;;;;;;5028920;28;20017;-76
2023/07/06 08:52:05;;;;;;;4.40;2.78;;;22.20;39.70;;;;;;5027667;28;20100;-77
2023/07/06 08:54:36;;;;;;;5.18;3.40;;;22.50;39.10;;;;;;5041549;28;20489;-78
2023/07/06 08:57:09;;;;;;;6.53;3.10;;;22.60;34.50;;;;;;5048891;28;20029;-80
2023/07/06 08:59:39;;;;;;;3.83;3.13;;;22.30;30.50;;;;;;5048712;28;20377;-79
2023/07/06 09:02:25;;;;;;;3.40;2.80;;;22.20;35.50;;;;;;5047613;28;20129;-80
2023/07/06 09:04:54;;;;;;;6.15;3.13;;;22.30;35.10;;;;;;5048410;28;20026;-75
2023/07/06 09:07:28;;;;;;;4.18;3.30;;;22.40;34.70;;;;;;5047847;28;20021;-75
2023/07/06 09:09:56;;;;;;;5.57;3.47;;;22.70;35.50;;;;;;5049598;28;20072;-76
2023/07/06 09:12:36;;;;;;;4.82;3.20;;;23.00;34.40;;;;;;5052181;28;20029;-73
2023/07/06 09:15:04;;;;;;;3.75;2.67;;;23.30;33.30;;;;;;5042623;28;20036;-72
2023/07/06 09:17:30;;;;;;;6.18;3.45;;;23.50;32.80;;;;;;5014543;28;20463;-72
2023/07/06 09:19:56;;;;;;;5.53;3.05;;;23.40;30.70;;;;;;5031420;28;20112;-72
2023/07/06 09:22:23;;;;;;;3.83;2.47;;;23.50;32.80;;;;;;5016415;28;20034;-72
2023/07/06 09:24:50;;;;;;;5.50;2.63;;;23.80;33.00;;;;;;5015270;28;20550;-72
2023/07/06 09:27:26;;;;;;;5.93;3.25;;;24.00;31.90;;;;;;5026569;28;20033;-73
2023/07/06 09:30:00;;;;;;;4.75;3.30;;;24.10;31.90;;;;;;5027801;28;20026;-73
2023/07/06 09:32:27;;;;;;;3.50;2.92;;;24.10;31.00;;;;;;5029184;28;20065;-72
2023/07/06 09:35:04;;;;;;;3.95;3.15;;;23.90;31.60;;;;;;5027873;28;20038;-73
2023/07/06 09:37:30;;;;;;;4.22;2.83;;;23.70;31.80;;;;;;5028016;28;20033;-73
2023/07/06 09:39:57;;;;;;;6.30;3.05;;;23.40;32.80;;;;;;5029234;28;20478;-73
2023/07/06 09:42:24;;;;;;;3.63;3.10;;;23.20;33.10;;;;;;5047353;28;20045;-72
2023/07/06 09:44:51;;;;;;;4.03;3.22;;;23.30;33.90;;;;;;5049796;28;20036;-72
2023/07/06 09:47:17;;;;;;;6.43;3.17;;;23.40;34.50;;;;;;5051206;28;20040;-73
2023/07/06 09:49:52;;;;;;;6.50;3.33;;;23.70;33.90;;;;;;5051313;28;20021;-72
2023/07/06 09:52:19;;;;;;;5.43;3.83;;;23.50;33.80;;;;;;5041841;28;20034;-74
2023/07/06 09:54:50;;;;;;;4.57;3.22;;;23.00;34.00;;;;;;5030471;28;20029;-73
2023/07/06 09:57:16;;;;;;;5.57;3.33;;;22.70;34.10;;;;;;5030114;28;20385;-73
2023/07/06 09:59:46;;;;;;;4.30;3.63;;;22.40;35.40;;;;;;5029874;28;20017;-73
2023/07/06 10:02:39;;;;;;;5.50;3.75;;;22.70;35.10;;;;;;5029885;28;20637;-73
2023/07/06 10:05:14;;;;;;;5.95;3.65;;;22.80;34.60;;;;;;5045618;28;20485;-72
2023/07/06 10:07:39;;;;;;;;;;;22.90;35.10;;;;;;5030348;28;20021;-73
2023/07/06 10:10:20;;;;;;;7.03;3.40;;;23.00;33.30;;;;;;5029584;28;19905;-73
2023/07/06 10:13:00;;;;;;;4.63;3.55;;;23.10;33.10;;;;;;5029445;28;20018;-73
2023/07/06 10:15:37;;;;;;;4.95;3.03;;;22.70;33.50;;;;;;5030191;28;20045;-73
2023/07/06 10:18:15;;;;;;;6.32;4.30;;;22.60;33.80;;;;;;5029720;28;20028;-73
2023/07/06 10:20:51;;;;;;;4.05;3.17;;;22.70;34.50;;;;;;5029444;28;20045;-73
2023/07/06 10:23:36;;;;;;;4.88;3.80;;;23.00;34.80;;;;;;5028778;28;20026;-73
2023/07/06 10:26:02;;;;;;;3.47;3.17;;;23.30;34.90;;;;;;5029613;28;20037;-73
2023/07/06 10:28:33;;;;;;;5.18;3.35;;;23.60;34.20;;;;;;5029399;28;20484;-73
2023/07/06 10:31:03;;;;;;;6.20;3.20;;;23.70;33.00;;;;;;5029788;28;20026;-73
2023/07/06 10:33:46;;;;;;;4.72;3.47;;;24.00;33.50;;;;;;5029559;28;20051;-73
2023/07/06 10:36:13;;;;;;;4.70;2.92;;;24.20;33.80;;;;;;5029556;28;20288;-73
2023/07/06 10:38:39;;;;;;;4.82;3.58;;;24.50;32.70;;;;;;5030779;28;20032;-72
2023/07/06 10:41:10;;;;;;;9.63;3.42;;;24.50;31.60;;;;;;5030738;28;20022;-72
2023/07/06 10:43:40;;;;;;;5.53;3.28;;;24.50;31.80;;;;;;5030732;28;20025;-72
2023/07/06 10:46:31;;;;;;;5.72;3.58;;;24.60;30.90;;;;;;5030708;28;20033;-72
2023/07/06 10:49:06;;;;;;;4.72;3.28;;;24.90;32.10;;;;;;5030680;28;20062;-72
2023/07/06 10:51:49;;;;;;;6.97;3.30;;;25.10;30.70;;;;;;5031546;28;20478;-73
2023/07/06 10:54:20;;;;;;;4.75;3.67;;;25.00;32.00;;;;;;5030414;28;20033;-73
2023/07/06 10:57:00;;;;;;;5.75;3.42;;;25.10;29.80;;;;;;5030298;28;20025;-72
2023/07/06 10:59:36;;;;;;;3.60;2.90;;;25.30;30.00;;;;;;5029949;28;20020;-72
2023/07/06 11:02:24;;;;;;;8.32;3.30;;;25.60;30.80;;;;;;5030157;28;20546;-73
2023/07/06 11:04:57;;;;;;;5.50;3.55;;;25.80;28.40;;;;;;5028841;28;20037;-77
2023/07/06 11:07:39;;;;;;;7.32;3.75;;;25.80;28.70;;;;;;5030245;28;20037;-73
2023/07/06 11:10:37;;;;;;;5.63;3.55;;;26.00;28.50;;;;;;5030403;28;20085;-73
2023/07/06 11:13:04;;;;;;;5.97;3.60;;;25.80;28.30;;;;;;5031371;28;20029;-73
2023/07/06 11:15:56;;;;;;;5.32;3.70;;;25.70;28.30;;;;;;5030159;28;20065;-73
2023/07/06 11:18:21;;;;;;;6.40;3.83;;;25.80;28.40;;;;;;5030174;28;20018;-74
2023/07/06 11:21:04;;;;;;;8.73;3.53;;;25.70;27.80;;;;;;5029091;28;20497;-74
2023/07/06 11:23:45;;;;;;;5.40;3.45;;;25.90;27.90;;;;;;5028731;28;20478;-73
2023/07/06 11:26:48;;;;;;;4.72;3.75;;;26.10;28.10;;;;;;5028708;28;20405;-72
2023/07/06 11:29:18;;;;;;;5.32;3.53;;;26.20;25.40;;;;;;5029081;28;20545;-72
2023/07/06 11:31:53;;;;;;;4.10;3.58;;;26.20;27.50;;;;;;5029773;28;20100;-71
2023/07/06 11:34:54;;;;;;;4.97;4.13;;;26.20;26.20;;;;;;5028229;28;20030;-73
2023/07/06 11:37:40;;;;;;;4.40;3.50;;;25.80;27.20;;;;;;5029696;28;20017;-73
2023/07/06 11:40:33;;;;;;;5.30;3.58;;;25.60;28.20;;;;;;5028390;28;20093;-73
2023/07/06 11:43:15;;;;;;;5.70;3.75;;;25.80;26.70;;;;;;5029708;28;20048;-74
2023/07/06 11:45:47;;;;;;;7.22;4.05;;;25.80;26.60;;;;;;5029847;28;20041;-73
2023/07/06 11:48:26;;;;;;;5.97;3.50;;;25.80;26.20;;;;;;5029789;28;20106;-73
2023/07/06 11:50:54;;;;;;;4.47;3.70;;;25.70;28.40;;;;;;5029632;28;20021;-72
2023/07/06 11:53:42;;;;;;;7.68;3.90;;;25.70;27.90;;;;;;5029898;28;20025;-72
2023/07/06 11:56:19;;;;;;;5.78;3.28;;;25.90;27.90;;;;;;5028705;28;20501;-74
2023/07/06 11:58:59;;;;;;;5.05;3.70;;;25.70;28.30;;;;;;5029820;28;20378;-71
2023/07/06 12:01:45;;;;;;;3.85;3.22;;;25.90;26.50;;;;;;5029418;28;20025;-72
2023/07/06 12:04:18;;;;;;;6.47;3.83;;;26.30;25.60;;;;;;5029878;28;20026;-71
2023/07/06 12:06:45;;;;;;;5.28;4.00;;;26.30;25.90;;;;;;5029621;28;20033;-72
2023/07/06 12:09:17;;;;;;;9.95;4.32;;;25.40;26.80;;;;;;5029815;28;20461;-71
2023/07/06 12:11:44;;;;;;;6.93;4.28;;;25.70;28.40;;;;;;5029665;28;20025;-71
2023/07/06 12:14:20;;;;;;;10.68;4.70;;;25.90;26.60;;;;;;5030328;28;20018;-71
2023/07/06 12:16:49;;;;;;;6.18;3.90;;;25.90;26.20;;;;;;5029748;28;20033;-72
2023/07/06 12:19:19;;;;;;;9.75;4.07;;;26.30;25.30;;;;;;5030025;28;20101;-73
2023/07/06 12:21:53;;;;;;;5.25;3.90;;;26.80;25.30;;;;;;5029594;28;20025;-74
2023/07/06 12:24:21;;;;;;;5.72;3.70;;;27.20;26.10;;;;;;5028596;28;20028;-72
2023/07/06 12:26:51;;;;;;;6.47;3.95;;;27.30;25.70;;;;;;5029470;28;20485;-72
2023/07/06 12:29:18;;;;;;;4.82;3.75;;;27.10;25.90;;;;;;5028416;28;20070;-71
2023/07/06 12:31:49;;;;;;;5.97;4.20;;;27.00;25.80;;;;;;5028400;28;20029;-73
2023/07/06 12:34:18;;;;;;;7.05;4.10;;;27.10;25.70;;;;;;5029188;28;20408;-72
2023/07/06 12:36:49;;;;;;;7.85;3.92;;;27.20;26.90;;;;;;5027999;28;20048;-73
2023/07/06 12:39:18;;;;;;;5.10;3.70;;;26.90;24.80;;;;;;5028213;28;20120;-72
2023/07/06 12:41:44;;;;;;;6.03;3.80;;;27.20;24.30;;;;;;5029234;28;20048;-72
2023/07/06 12:44:21;;;;;;;4.82;3.97;;;27.70;22.80;;;;;;5029358;28;20222;-73
2023/07/06 12:47:01;;;;;;;6.38;3.90;;;28.30;22.80;;;;;;5032964;28;20112;-72
2023/07/06 12:49:29;;;;;;;4.45;3.97;;;28.60;20.90;;;;;;5031979;28;20030;-73
2023/07/06 12:51:57;;;;;;;4.50;3.95;;;27.80;21.40;;;;;;5031742;28;20055;-73
2023/07/06 12:54:28;;;;;;;5.07;3.65;;;27.90;22.10;;;;;;5033109;28;20485;-73
2023/07/06 12:56:59;;;;;;;5.55;3.92;;;28.30;21.70;;;;;;5032933;28;20546;-72
2023/07/06 12:59:31;;;;;;;7.25;4.00;;;28.80;22.70;;;;;;5032933;28;20033;-72
2023/07/06 13:01:57;;;;;;;5.93;4.22;;;28.40;20.70;;;;;;5032800;28;20489;-74
2023/07/06 13:04:24;;;;;;;4.35;3.60;;;28.00;21.80;;;;;;5032649;28;20029;-73